Porthos — FM2710 — position and weather

sailwx.info

Track history (hours):
 
Tides and Currents Weather Stations Pressure Air Temp Water Temp Dewpoint Dewpoint Depression Visibility Wind Speed Wind Dir Waves Ship Positions

Porthos

Last reported at 2017-Jun-01 07:06 UTC. Time now 2017-Jun-25 02:04 UTC.
Position N 49°00' E 002°04'.
Warning: this ship's position is 23 days out of date.

Length 39 m; draft 3 m.

MMSI: 226002650.

Date/timePositionNaut miles runAvg speedWind from/ knotsBaromVisibWave heightAir tempDewpointWater temp
2017-Jun-01 07:06N 49°00' E 002°04'1 6.0
2017-Jun-01 06:54N 48°59' E 002°04'7 0.5
2017-May-31 16:02N 48°54' E 002°12'0 7.0
2017-May-31 15:59N 48°55' E 002°12'6 1.8
2017-May-31 12:51N 48°52' E 002°19'2 5.7
2017-May-31 12:31N 48°51' E 002°22'1 2.5
2017-May-31 12:00N 48°50' E 002°23'0 0.1
2017-May-31 11:26N 48°50' E 002°23'0 0.0
2017-May-31 09:47N 48°50' E 002°23'0 0.0
2017-May-31 09:29N 48°50' E 002°23'0 0.0
2017-May-31 08:59N 48°50' E 002°23'0 0.0
2017-May-31 08:29N 48°50' E 002°23'0 0.0
2017-May-31 07:59N 48°50' E 002°23'0 0.0
2017-May-31 07:11N 48°50' E 002°23'0 0.0
2017-May-31 06:59N 48°50' E 002°23'0 0.0
2017-May-31 06:26N 48°50' E 002°23'0 0.0
2017-May-31 05:59N 48°50' E 002°23'0 0.0
2017-May-31 05:17N 48°50' E 002°23'0 0.0
2017-May-31 05:00N 48°50' E 002°23'0 0.0
2017-May-31 04:28N 48°50' E 002°23'0 0.0
2017-May-31 02:40N 48°50' E 002°23'0 0.0
2017-May-31 01:43N 48°50' E 002°23'0 0.0
2017-May-31 01:22N 48°50' E 002°23'0 0.0
2017-May-31 01:00N 48°50' E 002°23'0 0.0
2017-May-31 00:30N 48°50' E 002°23'  
2017-May-25 09:32N 48°50' E 002°23'0 0.0
2017-May-25 09:26N 48°50' E 002°23'0 0.0
2017-May-25 08:59N 48°50' E 002°23'0 0.0
2017-May-25 08:26N 48°50' E 002°23'0 0.0
2017-May-25 07:59N 48°50' E 002°23'0 0.0
2017-May-25 07:29N 48°50' E 002°23'0 0.0
2017-May-25 06:56N 48°50' E 002°23'0 0.0
2017-May-24 12:16N 48°50' E 002°23'0 0.0
2017-May-24 11:55N 48°50' E 002°23'0 0.0
2017-May-24 11:25N 48°50' E 002°23'0 0.0
2017-May-24 10:52N 48°50' E 002°23'0 0.0
2017-May-24 10:13N 48°50' E 002°23'0 0.0
2017-May-24 09:58N 48°50' E 002°23'0 0.0
2017-May-24 09:25N 48°50' E 002°23'0 0.0
2017-May-24 08:52N 48°50' E 002°23'0 0.0
2017-May-24 08:25N 48°50' E 002°23'0 0.0
2017-May-24 07:58N 48°50' E 002°23'0 0.0
2017-May-24 07:25N 48°50' E 002°23'0 0.0
2017-May-24 06:55N 48°50' E 002°23'0 0.0
2017-May-24 05:55N 48°50' E 002°23'0 0.0
2017-May-24 05:25N 48°50' E 002°23'0 0.0
2017-May-24 04:52N 48°50' E 002°23'0 0.0
2017-May-23 10:43N 48°50' E 002°23'0 0.0
2017-May-23 10:13N 48°50' E 002°23'0 0.0
2017-May-23 09:55N 48°50' E 002°23'0 0.0
2017-May-23 09:28N 48°50' E 002°23'0 0.0
2017-May-23 08:58N 48°50' E 002°23'0 0.0
2017-May-23 08:25N 48°50' E 002°23'0 0.0
2017-May-23 07:58N 48°50' E 002°23'0 0.0
2017-May-23 07:28N 48°50' E 002°23'0 0.0
2017-May-23 06:55N 48°50' E 002°23'0 0.0
2017-May-23 06:28N 48°50' E 002°23'0 0.0
2017-May-23 05:58N 48°50' E 002°23'0 0.0
2017-May-23 05:28N 48°50' E 002°23'0 0.0
2017-May-23 04:01N 48°50' E 002°23'0 0.0
2017-May-23 03:49N 48°50' E 002°23'0 0.0
2017-May-23 03:25N 48°50' E 002°23'0 0.0
2017-May-23 02:55N 48°50' E 002°23'0 0.0
2017-May-23 02:28N 48°50' E 002°23'0 0.0
2017-May-23 01:55N 48°50' E 002°23'0 0.0
2017-May-23 01:28N 48°50' E 002°23'0 0.0
2017-May-23 00:58N 48°50' E 002°23'0 0.0
2017-May-23 00:25N 48°50' E 002°23'0 0.0
2017-May-22 13:24N 48°50' E 002°23'0 0.0
2017-May-22 13:00N 48°50' E 002°23'0 0.0
2017-May-22 12:09N 48°50' E 002°23'0 0.0
2017-May-22 12:00N 48°50' E 002°23'0 0.0
2017-May-22 11:24N 48°50' E 002°23'0 0.0
2017-May-22 11:00N 48°50' E 002°23'0 0.0
2017-May-22 10:30N 48°50' E 002°23'0 0.0
2017-May-22 09:54N 48°50' E 002°23'0 0.0
2017-May-22 09:24N 48°50' E 002°23'0 0.0
2017-May-22 08:59N 48°50' E 002°23'0 0.0
2017-May-22 08:23N 48°50' E 002°23'0 0.0
2017-May-22 07:59N 48°50' E 002°23'  
Track history (hours):
 
Tides and Currents Weather Stations Pressure Air Temp Water Temp Dewpoint Dewpoint Depression Visibility Wind Speed Wind Dir Waves Ship Positions

Porthos

Last reported at 2017-Jun-01 07:06 UTC. Time now 2017-Jun-25 02:04 UTC.
Position N 49°00' E 002°04'.
Warning: this ship's position is 23 days out of date.

Length 39 m; draft 3 m.

MMSI: 226002650.

Date/timePositionNaut miles runAvg speedWind from/ knotsBaromVisibWave heightAir tempDewpointWater temp
2017-Jun-01 07:06N 49°00' E 002°04'1 6.0
2017-Jun-01 06:54N 48°59' E 002°04'7 0.5
2017-May-31 16:02N 48°54' E 002°12'0 7.0
2017-May-31 15:59N 48°55' E 002°12'6 1.8
2017-May-31 12:51N 48°52' E 002°19'2 5.7
2017-May-31 12:31N 48°51' E 002°22'1 2.5
2017-May-31 12:00N 48°50' E 002°23'0 0.1
2017-May-31 11:26N 48°50' E 002°23'0 0.0
2017-May-31 09:47N 48°50' E 002°23'0 0.0
2017-May-31 09:29N 48°50' E 002°23'0 0.0
2017-May-31 08:59N 48°50' E 002°23'0 0.0
2017-May-31 08:29N 48°50' E 002°23'0 0.0
2017-May-31 07:59N 48°50' E 002°23'0 0.0
2017-May-31 07:11N 48°50' E 002°23'0 0.0
2017-May-31 06:59N 48°50' E 002°23'0 0.0
2017-May-31 06:26N 48°50' E 002°23'0 0.0
2017-May-31 05:59N 48°50' E 002°23'0 0.0
2017-May-31 05:17N 48°50' E 002°23'0 0.0
2017-May-31 05:00N 48°50' E 002°23'0 0.0
2017-May-31 04:28N 48°50' E 002°23'0 0.0
2017-May-31 02:40N 48°50' E 002°23'0 0.0
2017-May-31 01:43N 48°50' E 002°23'0 0.0
2017-May-31 01:22N 48°50' E 002°23'0 0.0
2017-May-31 01:00N 48°50' E 002°23'0 0.0
2017-May-31 00:30N 48°50' E 002°23'  
2017-May-25 09:32N 48°50' E 002°23'0 0.0
2017-May-25 09:26N 48°50' E 002°23'0 0.0
2017-May-25 08:59N 48°50' E 002°23'0 0.0
2017-May-25 08:26N 48°50' E 002°23'0 0.0
2017-May-25 07:59N 48°50' E 002°23'0 0.0
2017-May-25 07:29N 48°50' E 002°23'0 0.0
2017-May-25 06:56N 48°50' E 002°23'0 0.0
2017-May-24 12:16N 48°50' E 002°23'0 0.0
2017-May-24 11:55N 48°50' E 002°23'0 0.0
2017-May-24 11:25N 48°50' E 002°23'0 0.0
2017-May-24 10:52N 48°50' E 002°23'0 0.0
2017-May-24 10:13N 48°50' E 002°23'0 0.0
2017-May-24 09:58N 48°50' E 002°23'0 0.0
2017-May-24 09:25N 48°50' E 002°23'0 0.0
2017-May-24 08:52N 48°50' E 002°23'0 0.0
2017-May-24 08:25N 48°50' E 002°23'0 0.0
2017-May-24 07:58N 48°50' E 002°23'0 0.0
2017-May-24 07:25N 48°50' E 002°23'0 0.0
2017-May-24 06:55N 48°50' E 002°23'0 0.0
2017-May-24 05:55N 48°50' E 002°23'0 0.0
2017-May-24 05:25N 48°50' E 002°23'0 0.0
2017-May-24 04:52N 48°50' E 002°23'0 0.0
2017-May-23 10:43N 48°50' E 002°23'0 0.0
2017-May-23 10:13N 48°50' E 002°23'0 0.0
2017-May-23 09:55N 48°50' E 002°23'0 0.0
2017-May-23 09:28N 48°50' E 002°23'0 0.0
2017-May-23 08:58N 48°50' E 002°23'0 0.0
2017-May-23 08:25N 48°50' E 002°23'0 0.0
2017-May-23 07:58N 48°50' E 002°23'0 0.0
2017-May-23 07:28N 48°50' E 002°23'0 0.0
2017-May-23 06:55N 48°50' E 002°23'0 0.0
2017-May-23 06:28N 48°50' E 002°23'0 0.0
2017-May-23 05:58N 48°50' E 002°23'0 0.0
2017-May-23 05:28N 48°50' E 002°23'0 0.0
2017-May-23 04:01N 48°50' E 002°23'0 0.0
2017-May-23 03:49N 48°50' E 002°23'0 0.0
2017-May-23 03:25N 48°50' E 002°23'0 0.0
2017-May-23 02:55N 48°50' E 002°23'0 0.0
2017-May-23 02:28N 48°50' E 002°23'0 0.0
2017-May-23 01:55N 48°50' E 002°23'0 0.0
2017-May-23 01:28N 48°50' E 002°23'0 0.0
2017-May-23 00:58N 48°50' E 002°23'0 0.0
2017-May-23 00:25N 48°50' E 002°23'0 0.0
2017-May-22 13:24N 48°50' E 002°23'0 0.0
2017-May-22 13:00N 48°50' E 002°23'0 0.0
2017-May-22 12:09N 48°50' E 002°23'0 0.0
2017-May-22 12:00N 48°50' E 002°23'0 0.0
2017-May-22 11:24N 48°50' E 002°23'0 0.0
2017-May-22 11:00N 48°50' E 002°23'0 0.0
2017-May-22 10:30N 48°50' E 002°23'0 0.0
2017-May-22 09:54N 48°50' E 002°23'0 0.0
2017-May-22 09:24N 48°50' E 002°23'0 0.0
2017-May-22 08:59N 48°50' E 002°23'0 0.0
2017-May-22 08:23N 48°50' E 002°23'0 0.0
2017-May-22 07:59N 48°50' E 002°23'  

Dump ship's entire track history